LEMGGMTT

Guest
Details From LEMG - Malaga
To GMTT - Ibn Batouta
Flight Number -
Tags Generated
Created
Modified
Stats Distance 90 nm / 166 km
Max Altitude 0 ft / 0 m
Waypoints 2
Social Downloads 1
Likes 0
Share VATSIM

Download

Looking for another format? Having issues loading an existing format? Contact us
Advertisement - Login to hide

Notes

Generated

Route

LEMG GMTT

ID Type Via Altitude Latitude Longitude Leg Dist Tot Dist Heading (true) Name
O LEMG APT - 0 ft / 0 m 36.68453˚ -4.51259˚ - 0 nm - -
O GMTT APT - 0 ft / 0 m 35.71911˚ -5.92312˚ 89 nm 89 nm 230° / 229° -

Altitude Profile

Advertisement - Login to hide

LEMG

Details ICAO LEMG (AGP)
Name Malaga
Region Spain
Timezone Europe/Madrid (UTC+2.0)
Stats Elevation 52 ft / 16 m (AMSL)
Location 36.679780° -4.495899°
Runways 2
Magnetic Variation 0.827° W

METAR

LEMG 250130Z 28010KT 9999 RA SCT045 17/14 Q1012 TEMPO 4000 SHRA SCT030TCU

Decode

TAF

TAF AMD LEMG 250120Z 2501/2524 28010KT 9999 SCT045 TX24/2512Z TN16/2505Z TEMPO 2501/2505 SHRA SCT030TCU SCT040 PROB30 TEMPO 2501/2504 4000 TSRA SCT025CB BKN035 PROB40 TEMPO 2508/2512 VRB03KT BECMG 2510/2514 21008KT BECMG 2518/2521 VRB03KT

Decode

Departure Runways

ID Width Length Bearing (true) Bearing (mag) Surface Threshold Offset Overrun Length
12 148 ft / 45 m 10,057 ft / 3,065 m 117.76° 118.59° Asphalt 0 ft / 0 m 650 ft / 198 m
13 148 ft / 45 m 10,509 ft / 3,203 m 131.69° 132.52° Asphalt 0 ft / 0 m 246 ft / 75 m
30 148 ft / 45 m 10,057 ft / 3,065 m 297.78° 298.61° Asphalt 1,115 ft / 340 m 466 ft / 142 m
31 148 ft / 45 m 10,509 ft / 3,203 m 311.70° 312.53° Asphalt 0 ft / 0 m 246 ft / 75 m

GMTT

Details ICAO GMTT (TNG)
Name IBN BATOUTA
Region Morocco
Timezone Africa/Casablanca (UTC+0.0)
Stats Elevation 62 ft / 19 m (AMSL)
Location 35.726911° -5.916900°
Runways 2
Magnetic Variation 1.239° W

METAR

GMTT 250130Z 20006KT 170V230 8000 FEW020 14/13 Q1014 NOSIG

Decode

TAF

TAF GMTT 241700Z 2418/2524 24006KT 9999 SCT020 TEMPO 2508/2512 30012KT 4000 RA

Decode

Destination Runways

ID Width Length Bearing (true) Bearing (mag) Surface Threshold Offset Overrun Length
07 98 ft / 30 m 6,555 ft / 1,998 m 69.91° 71.15° Asphalt 0 ft / 0 m 0 ft / 0 m
10 148 ft / 45 m 11,465 ft / 3,495 m 96.01° 97.25° Asphalt 0 ft / 0 m 197 ft / 60 m
25 98 ft / 30 m 6,555 ft / 1,998 m 249.92° 251.16° Asphalt 0 ft / 0 m 0 ft / 0 m
28 148 ft / 45 m 11,465 ft / 3,495 m 276.03° 277.27° Asphalt 1,640 ft / 500 m 197 ft / 60 m

Approach Navaids

Runway Type Ident Frequency Range Bearing (true) Bearing (mag) Slope Elevation
28 Localiser TAG 109.30 MHz 18 nm / 33 km 276.22° 277.46° - 62 ft / 19 m (AMSL)
28 Glidescope TAG 109.30 MHz 10 nm / 19 km 276.02° 277.26° 2.99° 52 ft / 16 m (AMSL)

Popular Alternatives